createdAt,value
2022-08-21T00:00:02.836Z,1.80
2022-08-21T00:00:12.836Z,2.00
2022-08-21T00:00:22.865Z,2.20
2022-08-21T00:00:32.848Z,2.00
2022-08-21T00:00:44.356Z,2.00
2022-08-21T00:00:52.898Z,2.00
2022-08-21T00:01:02.871Z,2.50
2022-08-21T00:01:12.866Z,3.10
2022-08-21T00:01:22.937Z,3.00
2022-08-21T00:01:32.865Z,2.90
2022-08-21T00:01:42.889Z,2.40
2022-08-21T00:01:52.870Z,2.00
2022-08-21T00:02:02.866Z,1.80
2022-08-21T00:02:12.983Z,1.50
2022-08-21T00:02:22.945Z,2.50
2022-08-21T00:02:32.962Z,2.50
2022-08-21T00:02:42.863Z,2.50
2022-08-21T00:02:52.851Z,2.40
2022-08-21T00:03:02.946Z,3.00
2022-08-21T00:03:12.943Z,3.70
2022-08-21T00:03:22.917Z,3.60
2022-08-21T00:03:32.834Z,3.40
2022-08-21T00:03:42.860Z,5.20
2022-08-21T00:03:52.880Z,5.00
2022-08-21T00:04:02.872Z,5.20
2022-08-21T00:04:14.484Z,3.80
2022-08-21T00:04:22.917Z,3.20
2022-08-21T00:04:32.856Z,3.40
2022-08-21T00:04:56.988Z,2.80
2022-08-21T00:04:57.001Z,2.50
2022-08-21T00:05:02.921Z,2.30
2022-08-21T00:05:12.944Z,2.20
2022-08-21T00:05:22.883Z,2.10
2022-08-21T00:05:32.950Z,2.10
2022-08-21T00:05:42.881Z,2.00
2022-08-21T00:05:52.894Z,2.80
2022-08-21T00:06:02.900Z,2.70
2022-08-21T00:06:13.991Z,3.10
2022-08-21T00:06:22.885Z,3.00
2022-08-21T00:06:32.921Z,2.80
2022-08-21T00:06:42.846Z,2.40
2022-08-21T00:06:52.929Z,2.30
2022-08-21T00:07:02.934Z,2.60
2022-08-21T00:07:12.955Z,2.60
2022-08-21T00:07:22.924Z,2.60
2022-08-21T00:07:32.972Z,2.60
2022-08-21T00:07:42.896Z,2.80
2022-08-21T00:07:52.917Z,3.10
2022-08-21T00:08:02.950Z,3.90
2022-08-21T00:08:12.940Z,3.60
2022-08-21T00:08:22.851Z,3.70
2022-08-21T00:08:32.930Z,2.40
2022-08-21T00:08:42.842Z,2.40
2022-08-21T00:08:52.890Z,2.20
2022-08-21T00:09:06.342Z,2.20
2022-08-21T00:09:12.940Z,2.30
2022-08-21T00:09:22.930Z,2.80
2022-08-21T00:09:32.927Z,3.50
2022-08-21T00:09:42.964Z,3.30
2022-08-21T00:09:52.870Z,2.70
2022-08-21T00:10:02.858Z,3.00
2022-08-21T00:10:12.915Z,2.90
2022-08-21T00:10:22.909Z,2.70
2022-08-21T00:10:32.914Z,1.90
2022-08-21T00:10:42.951Z,1.90
2022-08-21T00:10:52.913Z,2.10
2022-08-21T00:11:02.903Z,2.00
2022-08-21T00:11:12.963Z,2.10
2022-08-21T00:11:22.880Z,1.60
2022-08-21T00:11:32.850Z,1.50
2022-08-21T00:11:42.886Z,1.60
2022-08-21T00:11:52.927Z,1.90
2022-08-21T00:12:02.922Z,2.10
2022-08-21T00:12:12.970Z,2.20
2022-08-21T00:12:22.938Z,1.90
2022-08-21T00:12:32.881Z,1.80
2022-08-21T00:12:42.912Z,2.00
2022-08-21T00:12:52.920Z,2.20
2022-08-21T00:13:02.928Z,1.70
2022-08-21T00:13:12.891Z,1.70
2022-08-21T00:13:22.843Z,2.50
2022-08-21T00:13:32.942Z,2.50
2022-08-21T00:13:42.894Z,2.40
2022-08-21T00:13:52.899Z,2.00
2022-08-21T00:14:02.860Z,2.30
2022-08-21T00:14:12.836Z,2.30
2022-08-21T00:14:22.853Z,2.30
2022-08-21T00:14:32.862Z,1.80
2022-08-21T00:14:42.883Z,2.30
2022-08-21T00:14:54.783Z,2.00
2022-08-21T00:15:02.942Z,2.20
2022-08-21T00:15:12.952Z,3.10
2022-08-21T00:15:22.836Z,3.10
2022-08-21T00:15:32.868Z,3.10
2022-08-21T00:15:42.930Z,1.80
2022-08-21T00:15:52.898Z,1.90
2022-08-21T00:16:02.922Z,1.60
2022-08-21T00:16:12.902Z,1.60
2022-08-21T00:16:22.953Z,1.70
2022-08-21T00:16:32.882Z,2.40
2022-08-21T00:16:42.953Z,2.90
2022-08-21T00:16:52.883Z,2.80
2022-08-21T00:17:02.909Z,2.60
2022-08-21T00:17:12.863Z,1.80
2022-08-21T00:17:22.854Z,1.70
2022-08-21T00:17:32.862Z,1.40
2022-08-21T00:17:42.885Z,1.60
2022-08-21T00:17:52.874Z,1.50
2022-08-21T00:18:02.899Z,1.70
2022-08-21T00:18:12.912Z,1.70
2022-08-21T00:18:22.964Z,2.00
2022-08-21T00:18:32.892Z,1.70
2022-08-21T00:18:42.923Z,1.60
2022-08-21T00:18:52.950Z,1.70
2022-08-21T00:19:02.961Z,1.80
2022-08-21T00:19:12.863Z,1.70
2022-08-21T00:19:22.871Z,1.70
2022-08-21T00:19:32.877Z,1.60
2022-08-21T00:19:42.901Z,1.70
2022-08-21T00:19:52.856Z,1.60
2022-08-21T00:20:02.854Z,1.70
2022-08-21T00:20:12.876Z,3.20
2022-08-21T00:20:22.940Z,3.20
2022-08-21T00:20:32.893Z,3.60
2022-08-21T00:20:42.883Z,2.40
2022-08-21T00:20:52.945Z,2.80
2022-08-21T00:21:02.883Z,2.70
2022-08-21T00:21:12.868Z,2.50
2022-08-21T00:21:22.858Z,2.40
2022-08-21T00:21:32.897Z,1.80
2022-08-21T00:21:44.466Z,2.00
2022-08-21T00:21:52.940Z,2.10
2022-08-21T00:22:02.967Z,2.40
2022-08-21T00:22:12.881Z,2.50
2022-08-21T00:22:22.877Z,2.80
2022-08-21T00:22:32.850Z,2.60
2022-08-21T00:22:42.903Z,2.80
2022-08-21T00:22:52.930Z,2.60
2022-08-21T00:23:02.952Z,3.40
2022-08-21T00:23:12.910Z,3.30
2022-08-21T00:23:22.937Z,2.80
2022-08-21T00:23:32.941Z,2.00
2022-08-21T00:23:42.848Z,1.80
2022-08-21T00:23:52.842Z,1.70
2022-08-21T00:24:02.956Z,1.70
2022-08-21T00:24:12.860Z,2.10
2022-08-21T00:24:22.898Z,2.40
2022-08-21T00:24:32.956Z,2.60
2022-08-21T00:24:42.921Z,2.40
2022-08-21T00:24:52.925Z,2.30
2022-08-21T00:25:02.833Z,2.10
2022-08-21T00:25:12.877Z,3.20
2022-08-21T00:25:24.287Z,2.90
2022-08-21T00:25:32.925Z,3.00
2022-08-21T00:25:42.932Z,2.10
2022-08-21T00:25:52.928Z,2.40
2022-08-21T00:26:02.943Z,2.20
2022-08-21T00:26:12.892Z,1.90
2022-08-21T00:26:22.958Z,1.60
2022-08-21T00:26:32.952Z,2.10
2022-08-21T00:26:42.871Z,2.00
2022-08-21T00:26:52.886Z,2.00
2022-08-21T00:27:02.904Z,1.70
2022-08-21T00:27:12.922Z,1.60
2022-08-21T00:27:22.967Z,1.70
2022-08-21T00:27:32.940Z,2.10
2022-08-21T00:27:42.954Z,2.60
2022-08-21T00:27:53.004Z,2.40
2022-08-21T00:28:02.859Z,2.70
2022-08-21T00:28:12.872Z,2.20
2022-08-21T00:28:22.838Z,2.20
2022-08-21T00:28:32.867Z,2.10
2022-08-21T00:28:42.859Z,2.20
2022-08-21T00:28:52.962Z,2.20
2022-08-21T00:29:02.839Z,1.70
2022-08-21T00:29:12.961Z,1.60
2022-08-21T00:29:22.881Z,1.70
2022-08-21T00:29:32.940Z,1.90
2022-08-21T00:29:42.837Z,2.10
2022-08-21T00:29:52.954Z,2.30
2022-08-21T00:30:02.950Z,2.80
2022-08-21T00:30:22.733Z,2.30
2022-08-21T00:30:23.578Z,2.10
2022-08-21T00:30:32.839Z,1.70
2022-08-21T00:30:42.871Z,1.90
2022-08-21T00:30:52.909Z,1.70
2022-08-21T00:31:02.938Z,2.20
2022-08-21T00:31:12.846Z,2.60
2022-08-21T00:31:22.873Z,2.50
2022-08-21T00:31:32.917Z,1.50
2022-08-21T00:31:42.960Z,1.40
2022-08-21T00:31:52.944Z,1.70
2022-08-21T00:32:02.954Z,2.20
2022-08-21T00:32:12.850Z,2.20
2022-08-21T00:32:22.836Z,2.30
2022-08-21T00:32:32.912Z,2.00
2022-08-21T00:32:42.881Z,2.30
2022-08-21T00:32:52.958Z,2.30
2022-08-21T00:33:02.849Z,3.20
2022-08-21T00:33:12.916Z,2.60
2022-08-21T00:33:22.870Z,2.40
2022-08-21T00:33:32.867Z,2.70
2022-08-21T00:33:42.848Z,2.80
2022-08-21T00:33:52.948Z,2.70
2022-08-21T00:34:02.920Z,2.40
2022-08-21T00:34:12.852Z,2.70
2022-08-21T00:34:22.852Z,2.70
2022-08-21T00:34:32.911Z,1.60
2022-08-21T00:34:42.859Z,1.30
2022-08-21T00:34:52.915Z,1.50
2022-08-21T00:35:02.835Z,2.50
2022-08-21T00:35:12.894Z,2.90
2022-08-21T00:35:22.859Z,3.20
2022-08-21T00:35:32.909Z,2.20
2022-08-21T00:35:42.876Z,2.00
2022-08-21T00:35:52.901Z,2.60
2022-08-21T00:36:02.899Z,2.50
2022-08-21T00:36:12.932Z,2.40
2022-08-21T00:36:22.933Z,1.90
2022-08-21T00:36:32.967Z,2.90
2022-08-21T00:36:42.837Z,4.50
2022-08-21T00:36:52.868Z,4.30
2022-08-21T00:37:02.840Z,4.10
2022-08-21T00:37:12.857Z,2.80
2022-08-21T00:37:22.919Z,2.60
2022-08-21T00:37:35.217Z,2.00
2022-08-21T00:37:42.884Z,1.60
2022-08-21T00:37:52.950Z,1.60
2022-08-21T00:38:02.956Z,2.30
2022-08-21T00:38:12.868Z,2.40
2022-08-21T00:38:22.847Z,2.60
2022-08-21T00:38:32.905Z,2.10
2022-08-21T00:38:42.943Z,1.90
2022-08-21T00:38:52.934Z,2.00
2022-08-21T00:39:02.927Z,1.70
2022-08-21T00:39:12.857Z,2.20
2022-08-21T00:39:22.895Z,2.70
2022-08-21T00:39:32.889Z,3.70
2022-08-21T00:39:43.012Z,3.30
2022-08-21T00:39:52.967Z,2.70
2022-08-21T00:40:03.018Z,1.60
2022-08-21T00:40:12.938Z,1.40
2022-08-21T00:40:22.937Z,1.60
2022-08-21T00:40:32.837Z,1.50
2022-08-21T00:40:42.863Z,1.50
2022-08-21T00:40:52.897Z,1.40
2022-08-21T00:41:02.961Z,1.80
2022-08-21T00:41:21.176Z,2.30
2022-08-21T00:41:37.164Z,1.90
2022-08-21T00:41:38.505Z,2.40
2022-08-21T00:41:42.942Z,1.50
2022-08-21T00:41:52.930Z,1.60
2022-08-21T00:42:02.864Z,1.80
2022-08-21T00:42:12.879Z,2.60
2022-08-21T00:42:22.964Z,2.80
2022-08-21T00:42:32.851Z,2.40
2022-08-21T00:42:42.953Z,2.10
2022-08-21T00:42:53.436Z,1.90
2022-08-21T00:43:03.193Z,2.10
2022-08-21T00:43:12.907Z,1.70
2022-08-21T00:43:22.941Z,1.50
2022-08-21T00:43:32.930Z,1.40
2022-08-21T00:43:42.934Z,1.30
2022-08-21T00:43:52.847Z,1.80
2022-08-21T00:44:02.939Z,1.80
2022-08-21T00:44:12.902Z,2.10
2022-08-21T00:44:22.835Z,1.70
2022-08-21T00:44:32.845Z,1.90
2022-08-21T00:44:42.866Z,2.00
2022-08-21T00:44:52.901Z,1.60
2022-08-21T00:45:02.867Z,1.80
2022-08-21T00:45:12.867Z,1.70
2022-08-21T00:45:22.888Z,1.80
2022-08-21T00:45:32.905Z,1.40
2022-08-21T00:45:42.867Z,1.70
2022-08-21T00:45:52.953Z,2.10
2022-08-21T00:46:02.860Z,2.50
2022-08-21T00:46:12.886Z,2.70
2022-08-21T00:46:28.153Z,2.30
2022-08-21T00:46:32.953Z,2.60
2022-08-21T00:46:42.905Z,2.10
2022-08-21T00:46:52.872Z,2.60
2022-08-21T00:47:02.881Z,3.40
2022-08-21T00:47:12.904Z,3.80
2022-08-21T00:47:22.931Z,3.20
2022-08-21T00:47:32.873Z,2.60
2022-08-21T00:47:42.935Z,2.20
2022-08-21T00:47:52.893Z,3.80
2022-08-21T00:48:02.913Z,3.40
2022-08-21T00:48:12.932Z,3.70
2022-08-21T00:48:22.879Z,2.20
2022-08-21T00:48:32.877Z,2.40
2022-08-21T00:48:42.843Z,2.00
2022-08-21T00:48:52.957Z,1.90
2022-08-21T00:49:02.860Z,1.60
2022-08-21T00:49:12.962Z,1.60
2022-08-21T00:49:22.874Z,1.90
2022-08-21T00:49:32.873Z,1.70
2022-08-21T00:49:42.904Z,1.70
2022-08-21T00:49:52.925Z,2.30
2022-08-21T00:50:02.856Z,2.30
2022-08-21T00:50:21.678Z,2.40
2022-08-21T00:50:22.914Z,2.70
2022-08-21T00:50:32.903Z,2.60
2022-08-21T00:50:42.849Z,2.30
2022-08-21T00:50:52.882Z,2.00
2022-08-21T00:51:02.840Z,2.20
2022-08-21T00:51:12.854Z,3.10
2022-08-21T00:51:22.866Z,2.60
2022-08-21T00:51:32.936Z,2.10
2022-08-21T00:51:42.920Z,1.60
2022-08-21T00:51:52.939Z,2.10
2022-08-21T00:52:02.833Z,2.50
2022-08-21T00:52:12.973Z,2.20
2022-08-21T00:52:22.937Z,1.80
2022-08-21T00:52:32.954Z,1.70
2022-08-21T00:52:42.953Z,1.90
2022-08-21T00:52:52.855Z,2.10
2022-08-21T00:53:02.838Z,2.60
2022-08-21T00:53:12.942Z,2.10
2022-08-21T00:53:22.954Z,1.50
2022-08-21T00:53:32.946Z,3.00
2022-08-21T00:53:42.925Z,3.20
2022-08-21T00:53:53.662Z,3.30
2022-08-21T00:54:02.903Z,1.20
2022-08-21T00:54:19.027Z,1.40
2022-08-21T00:54:22.907Z,2.10
2022-08-21T00:54:32.860Z,2.40
2022-08-21T00:54:46.286Z,2.10
2022-08-21T00:54:52.963Z,1.40
2022-08-21T00:55:02.842Z,1.40
2022-08-21T00:55:12.874Z,2.40
2022-08-21T00:55:23.534Z,3.00
2022-08-21T00:55:32.833Z,3.30
2022-08-21T00:55:42.966Z,2.70
2022-08-21T00:55:52.873Z,2.10
2022-08-21T00:56:02.974Z,1.90
2022-08-21T00:56:12.849Z,2.60
2022-08-21T00:56:22.948Z,2.80
2022-08-21T00:56:32.872Z,3.00
2022-08-21T00:56:42.956Z,1.60
2022-08-21T00:56:52.845Z,3.30
2022-08-21T00:57:02.956Z,3.70
2022-08-21T00:57:12.957Z,4.30
2022-08-21T00:57:23.002Z,2.50
2022-08-21T00:57:32.880Z,2.30
2022-08-21T00:57:42.842Z,1.80
2022-08-21T00:57:52.926Z,2.80
2022-08-21T00:58:02.833Z,2.60
2022-08-21T00:58:12.965Z,2.60
2022-08-21T00:58:22.851Z,2.50
2022-08-21T00:58:32.889Z,2.60
2022-08-21T00:58:42.887Z,2.90
2022-08-21T00:58:54.785Z,3.00
2022-08-21T00:59:02.862Z,3.00
2022-08-21T00:59:12.863Z,2.50
2022-08-21T00:59:22.887Z,1.70
2022-08-21T00:59:32.907Z,1.60
2022-08-21T00:59:42.847Z,2.30
2022-08-21T00:59:52.893Z,3.80
2022-08-21T01:00:02.896Z,3.60
2022-08-21T01:00:12.867Z,3.80
2022-08-21T01:00:22.923Z,2.30
2022-08-21T01:00:32.912Z,3.00
2022-08-21T01:00:42.996Z,3.40
2022-08-21T01:00:52.990Z,3.40
2022-08-21T01:01:08.096Z,2.80
2022-08-21T01:01:13.043Z,1.70
2022-08-21T01:01:22.978Z,1.60
2022-08-21T01:01:32.893Z,2.40
2022-08-21T01:01:42.945Z,1.90
2022-08-21T01:01:52.868Z,1.90
2022-08-21T01:02:02.899Z,2.00
2022-08-21T01:02:12.896Z,2.90
2022-08-21T01:02:22.935Z,3.10
2022-08-21T01:02:32.830Z,2.60
2022-08-21T01:02:42.927Z,2.00
2022-08-21T01:02:52.833Z,1.70
2022-08-21T01:03:02.839Z,1.20
2022-08-21T01:03:12.871Z,1.30
2022-08-21T01:03:23.838Z,2.10
2022-08-21T01:03:32.896Z,2.70
2022-08-21T01:03:44.099Z,2.90
2022-08-21T01:03:52.944Z,2.50
2022-08-21T01:04:02.862Z,2.70
2022-08-21T01:04:12.942Z,2.50
2022-08-21T01:04:22.917Z,2.20
2022-08-21T01:04:32.878Z,1.70
2022-08-21T01:04:42.924Z,1.70
2022-08-21T01:04:52.880Z,1.70
2022-08-21T01:05:02.928Z,1.60
2022-08-21T01:05:12.968Z,1.40
2022-08-21T01:05:22.870Z,1.50
2022-08-21T01:05:32.926Z,2.10
2022-08-21T01:05:42.962Z,2.70
2022-08-21T01:05:52.915Z,2.80
2022-08-21T01:06:02.924Z,2.40
2022-08-21T01:06:12.928Z,2.10
2022-08-21T01:06:22.915Z,1.70
2022-08-21T01:06:32.941Z,1.60
2022-08-21T01:06:42.876Z,2.40
2022-08-21T01:06:52.937Z,3.30
2022-08-21T01:07:02.838Z,3.30
2022-08-21T01:07:12.871Z,2.50
2022-08-21T01:07:22.906Z,1.80
2022-08-21T01:07:32.848Z,1.40
2022-08-21T01:07:42.914Z,2.10
2022-08-21T01:07:52.975Z,2.80
2022-08-21T01:08:02.975Z,3.20
2022-08-21T01:08:12.850Z,3.00
2022-08-21T01:08:22.955Z,3.30
2022-08-21T01:08:32.974Z,2.80
2022-08-21T01:08:46.839Z,2.90
2022-08-21T01:08:52.969Z,3.20
2022-08-21T01:09:02.856Z,3.30
2022-08-21T01:09:12.837Z,2.80
2022-08-21T01:09:22.855Z,1.40
2022-08-21T01:09:32.887Z,2.00
2022-08-21T01:09:42.907Z,2.10
2022-08-21T01:09:52.877Z,3.80
2022-08-21T01:10:02.895Z,3.50
2022-08-21T01:10:13.991Z,3.60
2022-08-21T01:10:23.953Z,2.50
2022-08-21T01:10:32.868Z,2.40
2022-08-21T01:10:42.885Z,2.80
2022-08-21T01:10:54.586Z,2.40
2022-08-21T01:11:03.194Z,2.20
2022-08-21T01:11:12.836Z,2.10
2022-08-21T01:11:22.963Z,1.60
2022-08-21T01:11:32.843Z,2.50
2022-08-21T01:11:42.897Z,1.90
2022-08-21T01:11:52.912Z,2.20
2022-08-21T01:12:02.929Z,1.50
2022-08-21T01:12:12.855Z,1.50
2022-08-21T01:12:22.862Z,1.50
2022-08-21T01:12:32.944Z,1.40
2022-08-21T01:12:42.976Z,2.10
2022-08-21T01:12:52.874Z,2.10
2022-08-21T01:13:02.925Z,2.20
2022-08-21T01:13:12.869Z,1.40
2022-08-21T01:13:22.860Z,1.60
2022-08-21T01:13:32.841Z,1.30
2022-08-21T01:13:42.852Z,2.50
2022-08-21T01:13:52.845Z,2.60
2022-08-21T01:14:02.963Z,3.90
2022-08-21T01:14:12.887Z,3.40
2022-08-21T01:14:22.966Z,3.40
2022-08-21T01:14:32.945Z,2.10
2022-08-21T01:14:42.857Z,1.80
2022-08-21T01:14:52.958Z,1.80
2022-08-21T01:15:02.885Z,1.80
2022-08-21T01:15:12.837Z,3.20
2022-08-21T01:15:22.963Z,2.80
2022-08-21T01:15:32.840Z,2.70
2022-08-21T01:15:42.941Z,2.20
2022-08-21T01:15:52.840Z,2.70
2022-08-21T01:16:02.859Z,3.20
2022-08-21T01:16:12.966Z,2.00
2022-08-21T01:16:22.856Z,3.50
2022-08-21T01:16:32.938Z,2.90
2022-08-21T01:16:42.924Z,4.80
2022-08-21T01:16:52.954Z,3.00
2022-08-21T01:17:02.850Z,3.60
2022-08-21T01:17:12.877Z,1.70
2022-08-21T01:17:22.863Z,1.80
2022-08-21T01:17:32.868Z,1.40
2022-08-21T01:17:42.846Z,2.00
2022-08-21T01:17:52.862Z,3.00
2022-08-21T01:18:02.929Z,2.90
2022-08-21T01:18:12.935Z,2.30
2022-08-21T01:18:22.869Z,1.40
2022-08-21T01:18:32.892Z,2.50
2022-08-21T01:18:42.861Z,3.20
2022-08-21T01:18:52.964Z,3.50
2022-08-21T01:19:02.863Z,3.70
2022-08-21T01:19:12.870Z,3.00
2022-08-21T01:19:22.914Z,2.90
2022-08-21T01:19:32.853Z,1.70
2022-08-21T01:19:42.866Z,2.40
2022-08-21T01:19:52.860Z,2.50
2022-08-21T01:20:02.889Z,2.40
2022-08-21T01:20:12.844Z,1.90
2022-08-21T01:20:22.929Z,1.80
2022-08-21T01:20:33.115Z,2.20
2022-08-21T01:20:42.920Z,1.60
2022-08-21T01:20:52.962Z,1.90
2022-08-21T01:21:02.859Z,2.30
2022-08-21T01:21:12.916Z,2.60
2022-08-21T01:21:22.855Z,1.90
2022-08-21T01:21:32.951Z,1.40
2022-08-21T01:21:43.985Z,2.00
2022-08-21T01:21:52.937Z,2.10
2022-08-21T01:22:02.955Z,2.40
2022-08-21T01:22:12.939Z,1.40
2022-08-21T01:22:22.945Z,2.30
2022-08-21T01:22:32.907Z,3.10
2022-08-21T01:22:42.911Z,3.30
2022-08-21T01:22:52.917Z,2.80
2022-08-21T01:23:02.834Z,2.40
2022-08-21T01:23:12.843Z,1.90
2022-08-21T01:23:22.908Z,1.90
2022-08-21T01:23:32.905Z,2.10
2022-08-21T01:23:42.895Z,2.10
2022-08-21T01:23:52.892Z,2.30
2022-08-21T01:24:02.842Z,2.00
2022-08-21T01:24:12.912Z,2.10
2022-08-21T01:24:22.897Z,2.60
2022-08-21T01:24:32.841Z,2.00
2022-08-21T01:24:42.897Z,2.90
2022-08-21T01:24:52.935Z,2.30
2022-08-21T01:25:02.916Z,2.70
2022-08-21T01:25:12.969Z,2.50
2022-08-21T01:25:22.951Z,2.40
2022-08-21T01:25:32.949Z,3.00
2022-08-21T01:25:42.963Z,2.70
2022-08-21T01:25:52.858Z,2.90
2022-08-21T01:26:02.901Z,2.20
2022-08-21T01:26:12.835Z,1.80
2022-08-21T01:26:22.840Z,1.30
2022-08-21T01:26:34.497Z,1.20
2022-08-21T01:26:42.932Z,1.80
2022-08-21T01:26:52.845Z,2.20
2022-08-21T01:27:02.834Z,3.30
2022-08-21T01:27:12.916Z,2.50
2022-08-21T01:27:22.892Z,2.90
2022-08-21T01:27:32.960Z,2.00
2022-08-21T01:27:42.879Z,2.30
2022-08-21T01:27:52.905Z,2.50
2022-08-21T01:28:02.899Z,2.40
2022-08-21T01:28:12.883Z,2.40
2022-08-21T01:28:22.884Z,1.70
2022-08-21T01:28:32.898Z,1.70
2022-08-21T01:28:42.897Z,1.50
2022-08-21T01:28:52.967Z,1.50
2022-08-21T01:29:02.878Z,1.50
2022-08-21T01:29:12.920Z,1.50
2022-08-21T01:29:22.926Z,1.40
2022-08-21T01:29:32.875Z,1.40
2022-08-21T01:29:42.905Z,1.50
2022-08-21T01:29:52.966Z,1.60
2022-08-21T01:30:02.933Z,1.50
2022-08-21T01:30:12.904Z,1.70
2022-08-21T01:30:22.855Z,1.50
2022-08-21T01:30:32.944Z,1.10
2022-08-21T01:30:42.966Z,2.20
2022-08-21T01:30:52.962Z,2.30
2022-08-21T01:31:02.910Z,2.70
2022-08-21T01:31:12.915Z,1.30
2022-08-21T01:31:26.076Z,1.50
2022-08-21T01:31:32.834Z,1.50
2022-08-21T01:31:42.888Z,2.30
2022-08-21T01:31:52.865Z,2.60
2022-08-21T01:32:02.914Z,2.40
2022-08-21T01:32:12.956Z,2.00
2022-08-21T01:32:22.870Z,1.60
2022-08-21T01:32:32.903Z,1.80
2022-08-21T01:32:42.884Z,1.60
2022-08-21T01:32:52.896Z,1.90
2022-08-21T01:33:02.937Z,2.10
2022-08-21T01:33:12.852Z,2.00
2022-08-21T01:33:22.933Z,1.70
2022-08-21T01:33:32.941Z,1.70
2022-08-21T01:33:42.955Z,1.80
2022-08-21T01:33:52.945Z,2.40
2022-08-21T01:34:02.929Z,2.10
2022-08-21T01:34:12.870Z,2.50
2022-08-21T01:34:22.873Z,1.90
2022-08-21T01:34:32.924Z,1.70
2022-08-21T01:34:42.955Z,1.10
2022-08-21T01:34:52.866Z,1.50
2022-08-21T01:35:02.885Z,1.80
2022-08-21T01:35:12.941Z,1.80
2022-08-21T01:35:22.945Z,2.40
2022-08-21T01:35:32.933Z,2.40
2022-08-21T01:35:42.841Z,2.90
2022-08-21T01:35:52.871Z,2.30
2022-08-21T01:36:02.936Z,2.10
2022-08-21T01:36:12.901Z,2.00
2022-08-21T01:36:22.897Z,1.50
2022-08-21T01:36:32.940Z,1.50
2022-08-21T01:36:42.838Z,1.30
2022-08-21T01:36:52.942Z,1.60
2022-08-21T01:37:02.917Z,2.10
2022-08-21T01:37:12.894Z,2.10
2022-08-21T01:37:22.966Z,2.30
2022-08-21T01:37:32.952Z,1.70
2022-08-21T01:37:42.860Z,1.60
2022-08-21T01:37:52.850Z,1.40
2022-08-21T01:38:02.865Z,1.70
2022-08-21T01:38:12.908Z,2.10
2022-08-21T01:38:22.901Z,3.50
2022-08-21T01:38:32.902Z,3.40
2022-08-21T01:38:42.843Z,2.80
2022-08-21T01:38:52.935Z,1.40
2022-08-21T01:39:02.907Z,1.30
2022-08-21T01:39:12.964Z,1.30
2022-08-21T01:39:22.965Z,1.80
2022-08-21T01:39:32.924Z,1.80
2022-08-21T01:39:42.915Z,1.80
2022-08-21T01:39:52.923Z,1.60
2022-08-21T01:40:02.909Z,2.10
2022-08-21T01:40:13.014Z,2.30
2022-08-21T01:40:22.906Z,1.50
2022-08-21T01:40:32.921Z,2.20
2022-08-21T01:40:42.913Z,3.50
2022-08-21T01:40:52.883Z,4.00
2022-08-21T01:41:02.840Z,5.00
2022-08-21T01:41:12.865Z,3.70
2022-08-21T01:41:22.897Z,4.80
2022-08-21T01:41:32.966Z,2.90
2022-08-21T01:41:42.889Z,3.30
2022-08-21T01:41:52.890Z,2.20
2022-08-21T01:42:02.954Z,2.50
2022-08-21T01:42:12.920Z,2.00
2022-08-21T01:42:22.896Z,3.50
2022-08-21T01:42:32.867Z,2.70
2022-08-21T01:42:42.892Z,3.70
2022-08-21T01:42:52.922Z,2.30
2022-08-21T01:43:02.862Z,2.50
2022-08-21T01:43:12.926Z,1.70
2022-08-21T01:43:23.873Z,1.90
2022-08-21T01:43:39.099Z,2.10
2022-08-21T01:43:42.843Z,2.30
2022-08-21T01:43:52.953Z,2.40
2022-08-21T01:44:02.928Z,2.00
2022-08-21T01:44:12.864Z,1.60
2022-08-21T01:44:22.956Z,0.90
2022-08-21T01:44:32.908Z,2.40
2022-08-21T01:44:42.960Z,2.50
2022-08-21T01:44:54.423Z,2.80
2022-08-21T01:45:02.862Z,1.70
2022-08-21T01:45:12.900Z,2.50
2022-08-21T01:45:22.934Z,2.80
2022-08-21T01:45:32.909Z,2.90
2022-08-21T01:45:42.903Z,2.30
2022-08-21T01:45:52.941Z,2.90
2022-08-21T01:46:02.834Z,2.30
2022-08-21T01:46:12.935Z,2.10
2022-08-21T01:46:22.926Z,1.60
2022-08-21T01:46:32.939Z,2.40
2022-08-21T01:46:42.920Z,2.70
2022-08-21T01:46:52.854Z,2.30
2022-08-21T01:47:02.854Z,2.00
2022-08-21T01:47:12.927Z,1.80
2022-08-21T01:47:22.875Z,2.40
2022-08-21T01:47:32.853Z,1.80
2022-08-21T01:47:42.846Z,2.50
2022-08-21T01:47:52.932Z,2.00
2022-08-21T01:48:02.844Z,2.50
2022-08-21T01:48:12.902Z,1.40
2022-08-21T01:48:22.959Z,1.20
2022-08-21T01:48:32.946Z,1.20
2022-08-21T01:48:42.950Z,1.40
2022-08-21T01:48:52.941Z,2.70
2022-08-21T01:49:02.901Z,2.50
2022-08-21T01:49:12.868Z,2.20
2022-08-21T01:49:22.906Z,1.30
2022-08-21T01:49:32.896Z,2.20
2022-08-21T01:49:42.889Z,1.90
2022-08-21T01:49:52.864Z,2.10
2022-08-21T01:50:02.931Z,1.60
2022-08-21T01:50:12.913Z,2.10
2022-08-21T01:50:22.899Z,1.90
2022-08-21T01:50:32.875Z,1.80
2022-08-21T01:50:42.892Z,1.10
2022-08-21T01:50:52.945Z,1.50
2022-08-21T01:51:02.855Z,1.60
2022-08-21T01:51:12.934Z,2.00
2022-08-21T01:51:22.864Z,1.90
2022-08-21T01:51:32.885Z,1.90
2022-08-21T01:51:42.916Z,1.90
2022-08-21T01:51:52.884Z,3.40
2022-08-21T01:52:02.882Z,3.30
2022-08-21T01:52:12.938Z,3.70
2022-08-21T01:52:22.955Z,3.00
2022-08-21T01:52:32.897Z,2.80
2022-08-21T01:52:42.914Z,2.90
2022-08-21T01:52:52.833Z,1.90
2022-08-21T01:53:02.870Z,1.90
2022-08-21T01:53:12.872Z,1.50
2022-08-21T01:53:27.748Z,1.90
2022-08-21T01:53:33.523Z,3.30
2022-08-21T01:53:42.855Z,4.30
2022-08-21T01:53:52.941Z,4.30
2022-08-21T01:54:02.966Z,2.70
2022-08-21T01:54:12.945Z,1.80
2022-08-21T01:54:22.924Z,1.50
2022-08-21T01:54:32.939Z,1.70
2022-08-21T01:54:42.884Z,3.30
2022-08-21T01:54:55.440Z,3.20
2022-08-21T01:55:02.874Z,4.30
2022-08-21T01:55:12.866Z,3.40
2022-08-21T01:55:22.858Z,3.60
2022-08-21T01:55:32.886Z,2.60
2022-08-21T01:55:42.892Z,1.60
2022-08-21T01:55:52.873Z,1.90
2022-08-21T01:56:02.903Z,1.80
2022-08-21T01:56:12.919Z,1.70
2022-08-21T01:56:22.886Z,1.60
2022-08-21T01:56:32.833Z,1.90
2022-08-21T01:56:42.956Z,2.50
2022-08-21T01:56:52.856Z,3.70
2022-08-21T01:57:02.834Z,3.70
2022-08-21T01:57:12.945Z,3.70
2022-08-21T01:57:22.876Z,2.60
2022-08-21T01:57:32.893Z,2.50
2022-08-21T01:57:42.913Z,2.30
2022-08-21T01:57:52.933Z,2.80
2022-08-21T01:58:02.858Z,3.00
2022-08-21T01:58:12.847Z,3.00
2022-08-21T01:58:22.951Z,2.00
2022-08-21T01:58:32.942Z,2.30
2022-08-21T01:58:42.847Z,2.60
2022-08-21T01:58:52.846Z,2.60
2022-08-21T01:59:02.848Z,2.10
2022-08-21T01:59:12.869Z,1.70
2022-08-21T01:59:22.878Z,1.80
2022-08-21T01:59:32.903Z,1.60
2022-08-21T01:59:42.882Z,3.00
2022-08-21T01:59:52.917Z,3.10
2022-08-21T02:00:02.948Z,3.50
2022-08-21T02:00:12.940Z,2.20
2022-08-21T02:00:22.886Z,3.60
2022-08-21T02:00:33.021Z,3.00
2022-08-21T02:00:42.885Z,3.10
2022-08-21T02:00:52.907Z,1.50
2022-08-21T02:01:03.048Z,1.50
2022-08-21T02:01:12.958Z,1.30
2022-08-21T02:01:22.944Z,1.30
2022-08-21T02:01:32.910Z,1.20
2022-08-21T02:01:42.890Z,1.90
2022-08-21T02:01:52.951Z,2.10
2022-08-21T02:02:02.887Z,2.00
2022-08-21T02:02:12.841Z,1.20
2022-08-21T02:02:22.890Z,1.50
2022-08-21T02:02:32.940Z,1.40
2022-08-21T02:02:42.951Z,2.00
2022-08-21T02:02:52.891Z,1.40
2022-08-21T02:03:02.896Z,1.80
2022-08-21T02:03:12.850Z,1.60
2022-08-21T02:03:26.421Z,2.50
2022-08-21T02:03:35.086Z,2.40
2022-08-21T02:03:42.913Z,3.50
2022-08-21T02:03:52.957Z,2.60
2022-08-21T02:04:02.964Z,2.70
2022-08-21T02:04:12.839Z,2.00
2022-08-21T02:04:22.916Z,2.50
2022-08-21T02:04:32.864Z,3.20
2022-08-21T02:04:42.890Z,2.40
2022-08-21T02:04:52.946Z,2.40
2022-08-21T02:05:02.917Z,1.50
2022-08-21T02:05:12.935Z,1.50
2022-08-21T02:05:22.958Z,1.70
2022-08-21T02:05:32.846Z,1.80
2022-08-21T02:05:42.947Z,1.90
2022-08-21T02:05:52.880Z,2.50
2022-08-21T02:06:02.972Z,3.00
2022-08-21T02:06:12.952Z,2.80
2022-08-21T02:06:22.940Z,2.70
2022-08-21T02:06:32.927Z,2.60
2022-08-21T02:06:42.915Z,3.00
2022-08-21T02:06:52.945Z,2.10
2022-08-21T02:07:02.960Z,2.40
2022-08-21T02:07:12.916Z,2.80
2022-08-21T02:07:22.854Z,2.30
2022-08-21T02:07:32.907Z,1.60
2022-08-21T02:07:42.883Z,1.30
2022-08-21T02:07:52.888Z,1.20
2022-08-21T02:08:02.908Z,1.20
2022-08-21T02:08:12.954Z,1.10
2022-08-21T02:08:22.922Z,1.50
2022-08-21T02:08:32.938Z,1.80
2022-08-21T02:08:42.931Z,1.80
2022-08-21T02:08:52.906Z,1.80
2022-08-21T02:09:02.929Z,2.00
2022-08-21T02:09:12.941Z,2.30
2022-08-21T02:09:22.861Z,2.10
2022-08-21T02:09:32.903Z,2.00
2022-08-21T02:09:42.924Z,1.70
2022-08-21T02:09:52.878Z,1.80
2022-08-21T02:10:02.900Z,4.00
2022-08-21T02:10:12.951Z,5.80
2022-08-21T02:10:22.944Z,5.90
2022-08-21T02:10:32.929Z,3.20
2022-08-21T02:10:42.966Z,1.00
2022-08-21T02:10:52.923Z,0.90
2022-08-21T02:11:02.940Z,1.50
2022-08-21T02:11:12.852Z,2.00
2022-08-21T02:11:22.902Z,2.00
2022-08-21T02:11:32.887Z,1.80
2022-08-21T02:11:42.938Z,2.00
2022-08-21T02:11:52.855Z,2.60
2022-08-21T02:12:02.955Z,2.00
2022-08-21T02:12:12.874Z,2.20
2022-08-21T02:12:22.868Z,2.20
2022-08-21T02:12:32.841Z,2.40
2022-08-21T02:12:42.859Z,3.90
2022-08-21T02:12:52.900Z,3.60
2022-08-21T02:13:02.959Z,4.30